Map

Track Data

SID SEASON NUMBER BASIN SUBBASIN NAME ISO_TIME NATURE LAT LON WMO_WIND WMO_PRES WMO_AGENCY TRACK_TYPE DIST2LAND LANDFALL IFLAG USA_AGENCY USA_ATCF_ID USA_LAT USA_LON USA_RECORD USA_STATUS USA_WIND USA_PRES USA_SSHS USA_R34_NE USA_R34_SE USA_R34_SW USA_R34_NW USA_R50_NE USA_R50_SE USA_R50_SW USA_R50_NW USA_R64_NE USA_R64_SE USA_R64_SW USA_R64_NW USA_POCI USA_ROCI USA_RMW USA_EYE TOKYO_LAT TOKYO_LON TOKYO_GRADE TOKYO_WIND TOKYO_PRES TOKYO_R50_DIR TOKYO_R50_LONG TOKYO_R50_SHORT TOKYO_R30_DIR TOKYO_R30_LONG TOKYO_R30_SHORT TOKYO_LAND CMA_LAT CMA_LON CMA_CAT CMA_WIND CMA_PRES HKO_LAT HKO_LON HKO_CAT HKO_WIND HKO_PRES NEWDELHI_LAT NEWDELHI_LON NEWDELHI_GRADE NEWDELHI_WIND NEWDELHI_PRES NEWDELHI_CI NEWDELHI_DP NEWDELHI_POCI REUNION_LAT REUNION_LON REUNION_TYPE REUNION_WIND REUNION_PRES REUNION_TNUM REUNION_CI REUNION_RMW REUNION_R34_NE REUNION_R34_SE REUNION_R34_SW REUNION_R34_NW REUNION_R50_NE REUNION_R50_SE REUNION_R50_SW REUNION_R50_NW REUNION_R64_NE REUNION_R64_SE REUNION_R64_SW REUNION_R64_NW BOM_LAT BOM_LON BOM_TYPE BOM_WIND BOM_PRES BOM_TNUM BOM_CI BOM_RMW BOM_R34_NE BOM_R34_SE BOM_R34_SW BOM_R34_NW BOM_R50_NE BOM_R50_SE BOM_R50_SW BOM_R50_NW BOM_R64_NE BOM_R64_SE BOM_R64_SW BOM_R64_NW BOM_ROCI BOM_POCI BOM_EYE BOM_POS_METHOD BOM_PRES_METHOD NADI_LAT NADI_LON NADI_CAT NADI_WIND NADI_PRES WELLINGTON_LAT WELLINGTON_LON WELLINGTON_WIND WELLINGTON_PRES DS824_LAT DS824_LON DS824_STAGE DS824_WIND DS824_PRES TD9636_LAT TD9636_LON TD9636_STAGE TD9636_WIND TD9636_PRES TD9635_LAT TD9635_LON TD9635_WIND TD9635_PRES TD9635_ROCI NEUMANN_LAT NEUMANN_LON NEUMANN_CLASS NEUMANN_WIND NEUMANN_PRES MLC_LAT MLC_LON MLC_CLASS MLC_WIND MLC_PRES USA_GUST BOM_GUST BOM_GUST_PER REUNION_GUST REUNION_GUST_PER USA_SEAHGT USA_SEARAD_NE USA_SEARAD_SE USA_SEARAD_SW USA_SEARAD_NW STORM_SPEED STORM_DIR
1897225N21088 1897 21 NI BB NOT_NAMED 1897-08-13 00:00:00 TS 21.1000 87.9000 main 63 44 _________O____ -1 21.1000 87.9000 TC 45 11 277
1897225N21088 1897 21 NI BB NOT_NAMED 1897-08-13 03:00:00 TS 21.1621 87.3384 main 38 0 _________PO___ -1 21.1932 87.0576 TC 45 21.1000 87.9000 3 13 277
1897225N21088 1897 21 NI BB NOT_NAMED 1897-08-13 06:00:00 TS 21.2555 86.5378 main 0 0 _________OP___ -1 21.3000 86.2000 TC 45 21.1887 87.0446 3 15 278
1897225N21088 1897 21 NI BB NOT_NAMED 1897-08-13 09:00:00 TS 21.3729 85.6975 main 0 0 _________PP___ -1 21.4349 85.3274 TC 45 21.2902 86.1910 3 15 280
1897225N21088 1897 21 NI BB NOT_NAMED 1897-08-13 12:00:00 TS 21.5108 84.9211 main 0 0 _________OP___ -1 21.6000 84.5000 TC 45 21.4216 85.3422 3 15 282
1897225N21088 1897 21 NI BB NOT_NAMED 1897-08-13 15:00:00 TS 21.6884 84.1386 main 0 0 _________PO___ -1 21.7769 83.7771 TC 41 21.6000 84.5000 3 15 286
1897225N21088 1897 21 NI BB NOT_NAMED 1897-08-13 18:00:00 TS 21.9172 83.3866 main 0 0 _________OP___ -1 22.0000 83.1000 TC 37 21.8344 83.6733 3 15 290
1897225N21088 1897 21 NI BB NOT_NAMED 1897-08-13 21:00:00 TS 22.2079 82.6128 main 0 0 _________PP___ -1 22.3154 82.3257 TC 33 22.1005 82.8999 3 14 293
1897225N21088 1897 21 NI BB NOT_NAMED 1897-08-14 00:00:00 TS 22.4831 81.9632 main 0 0 _________OP___ -1 22.6000 81.7000 TC 30 22.3661 82.2263 3 11 295
1897225N21088 1897 21 NI BB NOT_NAMED 1897-08-14 03:00:00 TS 22.6610 81.5585 main 0 0 _________PO___ -1 22.7220 81.4170 TC 30 22.6000 81.7000 1 7 297
1897225N21088 1897 21 NI BB NOT_NAMED 1897-08-14 06:00:00 TS 22.7775 81.3363 main 0 0 _________OP___ -1 22.8000 81.3000 TC 30 22.7549 81.3726 1 4 305
1897225N21088 1897 21 NI BB NOT_NAMED 1897-08-14 09:00:00 TS 22.9101 81.1666 main 0 0 _________PP___ -1 22.9425 81.1425 TC 30 22.8777 81.1907 1 4 315
1897225N21088 1897 21 NI BB NOT_NAMED 1897-08-14 12:00:00 TS 23.0434 81.0443 main 0 0 _________OP___ -1 23.1000 81.0000 TC 30 22.9868 81.0886 1 3 320
1897225N21088 1897 21 NI BB NOT_NAMED 1897-08-14 15:00:00 TS 23.1750 80.9287 main 0 0 _________PO___ -1 23.2500 80.8574 TC 30 23.1000 81.0000 1 4 317
1897225N21088 1897 21 NI BB NOT_NAMED 1897-08-14 18:00:00 TS 23.3316 80.7524 main 0 0 _________OP___ -1 23.4000 80.7000 TC 30 23.2632 80.8049 1 5 313
1897225N21088 1897 21 NI BB NOT_NAMED 1897-08-14 21:00:00 TS 23.5013 80.5490 main 0 0 _________PP___ -1 23.5726 80.4851 TC 30 23.4301 80.6128 1 5 311
1897225N21088 1897 21 NI BB NOT_NAMED 1897-08-15 00:00:00 TS 23.6410 80.3696 main 0 0 _________OP___ -1 23.7000 80.3000 TC 30 23.5820 80.4393 1 3 308
1897225N21088 1897 21 NI BB NOT_NAMED 1897-08-15 03:00:00 TS 23.7075 80.2637 main 0 0 _________PO___ -1 23.7150 80.2274 TC 30 23.7000 80.3000 1 2 300
1897225N21088 1897 21 NI BB NOT_NAMED 1897-08-15 06:00:00 TS 23.7263 80.2069 main 0 0 _________OP___ -1 23.7000 80.2000 TC 30 23.7527 80.2138 1 1 297
1897225N21088 1897 21 NI BB NOT_NAMED 1897-08-15 09:00:00 TS 23.7574 80.1561 main 0 0 _________PP___ -1 23.7425 80.1500 TC 30 23.7724 80.1622 1 1 305
1897225N21088 1897 21 NI BB NOT_NAMED 1897-08-15 12:00:00 TS 23.7904 80.1147 main 0 0 _________OP___ -1 23.8000 80.1000 TC 30 23.7809 80.1295 1 1 308
1897225N21088 1897 21 NI BB NOT_NAMED 1897-08-15 15:00:00 TS 23.8212 80.0750 main 0 0 _________PO___ -1 23.8425 80.0500 TC 30 23.8000 80.1000 1 1 321
1897225N21088 1897 21 NI BB NOT_NAMED 1897-08-15 18:00:00 TS 23.8721 80.0371 main 0 0 _________OP___ -1 23.9000 80.0000 TC 30 23.8443 80.0742 1 1 336
1897225N21088 1897 21 NI BB NOT_NAMED 1897-08-15 21:00:00 TS 23.9411 80.0085 main 0 0 _________PP___ -1 23.9775 79.9724 TC 30 23.9048 80.0446 1 2 335
1897225N21088 1897 21 NI BB NOT_NAMED 1897-08-16 00:00:00 TS 24.0440 79.9464 main 0 0 _________OP___ -1 24.1000 79.9000 TC 30 23.9880 79.9928 1 3 324
1897225N21088 1897 21 NI BB NOT_NAMED 1897-08-16 03:00:00 TS 24.1963 79.8113 main 0 0 _________PO___ -1 24.2925 79.7226 TC 30 24.1000 79.9000 1 4 318
1897225N21088 1897 21 NI BB NOT_NAMED 1897-08-16 06:00:00 TS 24.3671 79.6236 main 0 0 _________OP___ -1 24.5000 79.5000 TC 30 24.2341 79.7472 1 5 313
1897225N21088 1897 21 NI BB NOT_NAMED 1897-08-16 09:00:00 TS 24.5200 79.4299 main 0 0 _________PP___ -1 24.6424 79.3073 TC 30 24.3976 79.5524 1 5 311
1897225N21088 1897 21 NI BB NOT_NAMED 1897-08-16 12:00:00 TS 24.6936 79.2157 main 0 0 _________OP___ -1 24.8000 79.1000 TC 30 24.5872 79.3315 1 6 314
1897225N21088 1897 21 NI BB NOT_NAMED 1897-08-16 15:00:00 TS 24.9175 78.9750 main 0 0 _________PO___ -1 25.0350 78.8501 TC 30 24.8000 79.1000 1 6 318
1897225N21088 1897 21 NI BB NOT_NAMED 1897-08-16 18:00:00 TS 25.1477 78.7587 main 0 0 _________OP___ -1 25.3000 78.6000 TC 30 24.9954 78.9174 1 6 321
1897225N21088 1897 21 NI BB NOT_NAMED 1897-08-16 21:00:00 TS 25.3682 78.5761 main 0 0 _________PP___ -1 25.5197 78.4293 TC 30 25.2166 78.7228 1 6 323
1897225N21088 1897 21 NI BB NOT_NAMED 1897-08-17 00:00:00 TS 25.6398 78.3459 main 0 0 _________OP___ -1 25.8000 78.2000 TC 30 25.4796 78.4919 1 8 321
1897225N21088 1897 21 NI AS NOT_NAMED 1897-08-17 03:00:00 TS 26.0101 77.9939 main 0 0 _________PO___ -1 26.2202 77.7878 TC 30 25.8000 78.2000 1 11 319
1897225N21088 1897 21 NI AS NOT_NAMED 1897-08-17 06:00:00 TS 26.4504 77.5618 main 0 0 _________OP___ -1 26.7000 77.3000 TC 30 26.2008 77.8236 1 12 319
1897225N21088 1897 21 NI AS NOT_NAMED 1897-08-17 09:00:00 TS 26.9062 77.1240 main 0 0 _________PP___ -1 27.1572 76.8646 TC 30 26.6553 77.3834 1 12 318
1897225N21088 1897 21 NI AS NOT_NAMED 1897-08-17 12:00:00 TS 27.3660 76.6507 main 0 0 _________OP___ -1 27.6000 76.4000 TC 30 27.1320 76.9014 1 13 315
1897225N21088 1897 21 NI AS NOT_NAMED 1897-08-17 15:00:00 TS 27.8038 76.1249 main 0 0 _________PO___ -1 28.0076 75.8498 TC 30 27.6000 76.4000 1 13 312
1897225N21088 1897 21 NI AS NOT_NAMED 1897-08-17 18:00:00 TS 28.2341 75.5715 main 0 0 _________OP___ -1 28.4000 75.3000 TC 30 28.0682 75.8430 1 13 312
1897225N21088 1897 21 NI AS NOT_NAMED 1897-08-17 21:00:00 TS 28.6795 75.0291 main 0 0 _________PP___ -1 28.8451 74.7754 TC 30 28.5140 75.2827 1 12 314
1897225N21088 1897 21 NI AS NOT_NAMED 1897-08-18 00:00:00 TS 29.0513 74.5903 main 0 0 _________OP___ -1 29.2000 74.4000 TC 30 28.9026 74.7807 1 8 315
1897225N21088 1897 21 NI AS NOT_NAMED 1897-08-18 03:00:00 TS 29.2761 74.3447 main 0 0 _________PO___ -1 29.3522 74.2894 TC 30 29.2000 74.4000 1 4 319
1897225N21088 1897 21 NI AS NOT_NAMED 1897-08-18 06:00:00 TS 29.3816 74.2611 main 0 0 _________OP___ -1 29.4000 74.3000 TC 30 29.3631 74.2223 1 2 325
1897225N21088 1897 21 NI AS NOT_NAMED 1897-08-18 09:00:00 TS 29.4443 74.2099 main 0 0 _________PP___ -1 29.4500 74.2500 TC 30 29.4386 74.1698 1 1 331
1897225N21088 1897 21 NI AS NOT_NAMED 1897-08-18 12:00:00 TS 29.4849 74.1913 main 0 0 _________OP___ -1 29.5000 74.2000 TC 30 29.4699 74.1825 1 1 347
1897225N21088 1897 21 NI AS NOT_NAMED 1897-08-18 15:00:00 TS 29.5462 74.1787 main 0 0 _________PO___ -1 29.5925 74.1575 TC 30 29.5000 74.2000 1 1 344
1897225N21088 1897 21 NI AS NOT_NAMED 1897-08-18 18:00:00 TS 29.6219 74.1423 main 0 0 _________OP___ -1 29.7000 74.1000 TC 30 29.5633 74.1741 1 2 331
1897225N21088 1897 21 NI AS NOT_NAMED 1897-08-18 21:00:00 TS 29.7158 74.0677 main 0 0 _________PP___ -1 29.8025 74.0101 TC 30 29.6581 74.1062 1 2 323
1897225N21088 1897 21 NI AS NOT_NAMED 1897-08-19 00:00:00 TS 29.8159 73.9735 main 0 0 _________OP___ -1 29.9000 73.9000 TC 30 29.7738 74.0102 1 2 321
1897225N21088 1897 21 NI AS NOT_NAMED 1897-08-19 03:00:00 NR 29.9000 73.9000 main 0 __________O___ -1 TC 29.9000 73.9000 1 2 319

About IBTrACS Database

This database is a web-friendly format of International Best Track Archive for Climate Stewardship (IBTrACS), a global best track data archive curated by NOAA dating back to 1842.

Updated: 2021-10-25